createdAt,value
2022-10-03T00:04:28.153Z,1.20
2022-10-03T00:09:47.373Z,1.17
2022-10-03T00:15:06.159Z,1.40
2022-10-03T00:20:42.586Z,1.20
2022-10-03T00:25:55.178Z,1.30
2022-10-03T00:31:12.057Z,1.30
2022-10-03T00:36:23.379Z,1.23
2022-10-03T00:42:02.110Z,1.40
2022-10-03T00:47:40.383Z,1.33
2022-10-03T00:53:07.332Z,1.50
2022-10-03T00:58:33.639Z,1.27
2022-10-03T01:03:47.155Z,1.30
2022-10-03T01:09:21.913Z,1.20
2022-10-03T01:14:38.347Z,1.20
2022-10-03T01:20:04.405Z,1.13
2022-10-03T01:25:19.232Z,1.20
2022-10-03T01:30:23.932Z,1.40
2022-10-03T01:35:37.496Z,1.30
2022-10-03T01:40:45.662Z,1.10
2022-10-03T01:46:05.665Z,1.17
2022-10-03T01:51:12.709Z,1.53
2022-10-03T01:56:26.822Z,1.70
2022-10-03T02:01:44.873Z,1.83
2022-10-03T02:06:54.704Z,2.20
2022-10-03T02:12:10.004Z,1.73
2022-10-03T02:17:29.320Z,1.80
2022-10-03T02:22:39.419Z,1.53
2022-10-03T02:28:00.267Z,1.50
2022-10-03T02:33:45.952Z,1.80
2022-10-03T02:39:25.200Z,1.70
2022-10-03T02:44:53.795Z,1.87
2022-10-03T02:50:32.516Z,1.80
2022-10-03T02:56:05.110Z,1.80
2022-10-03T03:01:52.045Z,1.93
2022-10-03T03:07:16.881Z,2.00
2022-10-03T03:13:10.666Z,2.20
2022-10-03T03:18:26.384Z,2.17
2022-10-03T03:23:52.274Z,2.20
2022-10-03T03:29:08.564Z,2.23
2022-10-03T03:34:20.077Z,2.30
2022-10-03T03:39:47.691Z,2.17
2022-10-03T03:45:15.469Z,2.10
2022-10-03T03:50:31.329Z,2.37
2022-10-03T03:55:48.603Z,2.20
2022-10-03T04:01:16.723Z,2.73
2022-10-03T09:05:24.619Z,3.20
2022-10-03T09:10:50.407Z,2.93
2022-10-03T09:16:31.298Z,2.90
2022-10-03T09:22:03.413Z,2.87
2022-10-03T09:27:44.419Z,2.70
2022-10-03T09:33:15.113Z,2.63
2022-10-03T09:38:48.079Z,2.50
2022-10-03T09:44:21.692Z,2.70
2022-10-03T09:49:43.436Z,2.80
2022-10-03T09:55:14.194Z,2.67
2022-10-03T10:00:22.157Z,2.10
2022-10-03T10:06:05.089Z,1.80
2022-10-03T10:11:32.966Z,1.43
2022-10-03T10:17:26.229Z,1.50
2022-10-03T10:23:02.731Z,1.40
2022-10-03T10:28:45.262Z,1.20
2022-10-03T10:34:17.952Z,1.50
2022-10-03T10:39:51.088Z,1.50
2022-10-03T10:45:48.397Z,1.23
2022-10-03T10:51:27.696Z,1.50
2022-10-03T10:57:05.103Z,1.40
2022-10-03T11:02:45.860Z,1.50
2022-10-03T11:08:43.040Z,1.90
2022-10-03T11:14:17.693Z,1.40
2022-10-03T11:20:05.766Z,1.80
2022-10-03T11:31:25.509Z,1.80
2022-10-03T11:36:59.845Z,1.90
2022-10-03T11:42:11.810Z,2.10
2022-10-03T11:47:52.792Z,1.80
2022-10-03T11:53:20.424Z,1.60
2022-10-03T11:58:38.220Z,1.70
2022-10-03T12:03:50.603Z,1.70
2022-10-03T12:09:14.225Z,1.80
2022-10-03T12:14:29.198Z,2.40
2022-10-03T12:19:38.177Z,2.40
2022-10-03T12:24:45.133Z,2.27
2022-10-03T12:29:58.712Z,2.00
2022-10-03T12:35:21.782Z,2.40
2022-10-03T12:40:31.132Z,1.87
2022-10-03T12:45:40.633Z,1.83
2022-10-03T12:50:48.759Z,1.80
2022-10-03T12:56:06.341Z,1.90
2022-10-03T13:01:17.990Z,1.60
2022-10-03T13:07:02.997Z,1.67
2022-10-03T13:12:17.213Z,1.57
2022-10-03T13:17:29.649Z,1.67
2022-10-03T13:22:41.422Z,1.53
2022-10-03T13:27:50.635Z,1.53
2022-10-03T13:32:59.944Z,1.60
2022-10-03T13:38:20.347Z,1.57
2022-10-03T13:43:37.676Z,1.40
2022-10-03T13:48:42.956Z,1.70
2022-10-03T13:53:59.851Z,1.70
2022-10-03T13:59:15.411Z,1.80
2022-10-03T14:04:38.541Z,1.50
2022-10-03T14:10:12.999Z,1.67
2022-10-03T14:15:29.611Z,1.90
2022-10-03T14:20:39.290Z,1.77
2022-10-03T14:25:48.192Z,1.80
2022-10-03T14:31:07.291Z,1.90
2022-10-03T14:36:31.736Z,1.70
2022-10-03T14:41:48.134Z,1.40
2022-10-03T14:46:58.972Z,1.33
2022-10-03T14:52:05.633Z,1.70
2022-10-03T14:57:24.821Z,1.60
2022-10-03T15:02:32.771Z,1.90
2022-10-03T15:07:39.089Z,1.73
2022-10-03T15:12:46.105Z,2.00
2022-10-03T15:17:53.384Z,2.07
2022-10-03T15:23:00.768Z,1.50
2022-10-03T15:28:07.091Z,1.47
2022-10-03T15:33:30.781Z,1.70
2022-10-03T15:38:39.065Z,1.57
2022-10-03T15:43:47.101Z,1.50
2022-10-03T15:48:55.113Z,1.70
2022-10-03T15:54:00.349Z,1.60
2022-10-03T15:59:07.326Z,1.50
2022-10-03T16:04:20.501Z,1.50
2022-10-03T16:09:31.245Z,1.67
2022-10-03T16:14:41.628Z,1.37
2022-10-03T16:19:53.348Z,1.70
2022-10-03T16:25:06.139Z,1.67
2022-10-03T16:30:22.398Z,1.60
2022-10-03T16:35:38.841Z,1.60
2022-10-03T16:40:41.942Z,1.57
2022-10-03T16:45:48.125Z,1.40
2022-10-03T16:50:54.238Z,1.90
2022-10-03T16:56:04.661Z,1.70
2022-10-03T17:01:27.983Z,1.80
2022-10-03T17:06:35.049Z,2.00
2022-10-03T17:11:41.538Z,1.57
2022-10-03T17:16:50.489Z,1.47
2022-10-03T17:21:57.771Z,1.43
2022-10-03T17:27:08.716Z,1.83
2022-10-03T17:32:19.173Z,1.70
2022-10-03T17:37:52.014Z,1.80
2022-10-03T17:43:00.875Z,1.60
2022-10-03T17:48:13.992Z,1.60
2022-10-03T17:53:22.367Z,1.47
2022-10-03T17:58:29.534Z,1.33
2022-10-03T18:03:40.522Z,1.20
2022-10-03T18:08:44.918Z,1.73
2022-10-03T18:13:52.478Z,1.40
2022-10-03T18:19:07.057Z,1.27
2022-10-03T18:24:48.720Z,1.40
2022-10-03T18:30:01.336Z,1.30
2022-10-03T18:35:12.817Z,1.30
2022-10-03T18:40:20.698Z,1.30
2022-10-03T18:45:31.103Z,1.10
2022-10-03T18:50:44.384Z,1.07
2022-10-03T18:55:51.125Z,1.20
2022-10-03T19:01:02.559Z,1.87
2022-10-03T19:06:09.180Z,2.10
2022-10-03T19:11:21.296Z,1.83
2022-10-03T19:16:47.276Z,2.10
2022-10-03T19:21:51.615Z,1.80
2022-10-03T19:26:59.858Z,1.67
2022-10-03T19:32:07.238Z,1.53
2022-10-03T19:37:17.413Z,1.40
2022-10-03T19:42:30.486Z,1.40
2022-10-03T19:47:38.108Z,1.60
2022-10-03T19:52:41.795Z,1.40
2022-10-03T19:57:49.108Z,1.40
2022-10-03T20:03:05.939Z,1.53
2022-10-03T20:08:22.901Z,1.73
2022-10-03T20:13:25.984Z,1.70
2022-10-03T20:18:34.603Z,1.50
2022-10-03T20:23:42.862Z,1.43
2022-10-03T20:29:01.539Z,1.17
2022-10-03T20:34:11.295Z,1.30
2022-10-03T20:39:19.202Z,1.40
2022-10-03T20:44:45.148Z,1.33
2022-10-03T20:49:53.655Z,1.40
2022-10-03T20:55:00.766Z,1.63
2022-10-03T21:00:08.660Z,1.40
2022-10-03T21:05:21.517Z,1.30
2022-10-03T21:10:30.860Z,1.30
2022-10-03T21:15:40.383Z,1.40
2022-10-03T21:20:46.711Z,1.50
2022-10-03T21:25:51.239Z,1.20
2022-10-03T21:31:20.709Z,2.43
2022-10-03T21:36:31.799Z,1.50
2022-10-03T21:41:41.608Z,1.57
2022-10-03T21:46:53.273Z,1.50
2022-10-03T21:52:23.539Z,1.23
2022-10-03T21:57:38.045Z,1.37
2022-10-03T22:02:53.119Z,1.50
2022-10-03T22:07:57.681Z,1.27
2022-10-03T22:13:07.762Z,1.30
2022-10-03T22:18:13.406Z,1.30
2022-10-03T22:23:28.983Z,1.00
2022-10-03T22:28:42.087Z,0.80
2022-10-03T22:34:00.227Z,0.83
2022-10-03T22:39:09.918Z,1.00
2022-10-03T22:44:15.623Z,1.20
2022-10-03T22:49:22.075Z,1.20
2022-10-03T22:54:34.365Z,1.50
2022-10-03T22:59:46.561Z,1.50
2022-10-03T23:04:54.471Z,1.10
2022-10-03T23:10:08.188Z,1.30
2022-10-03T23:15:15.094Z,1.30
2022-10-03T23:20:29.799Z,1.10
2022-10-03T23:25:44.795Z,1.30
2022-10-03T23:30:50.685Z,1.10
2022-10-03T23:35:53.909Z,1.07
2022-10-03T23:41:00.531Z,1.00
2022-10-03T23:46:06.339Z,0.90
2022-10-03T23:51:11.863Z,1.40
2022-10-03T23:56:31.816Z,1.30
